ESGG/GOT METAR and TAF weather

Enter ICAO airport designator
Station Type Date Time Source
ESGG METAR 2022/06/28 08:20 UTC NOAA

ESGG 280820Z 29007KT 9999 SCT009 BKN013 15/13 Q1018


Station Type Date Time Source
ESGG Decoded METAR 2022/06/28 08:20 UTC NOAA

Goteborg / Landvetter, Sweden (ESGG) 57-40N 012-18E
Jun 28, 2022 - 04:20 AM EDT / 2022.06.28 0820 UTC
Wind: from the WNW (290 degrees) at 8 MPH (7 KT):0
Visibility: greater than 7 mile(s):0
Sky conditions: mostly cloudy
Temperature: 59 F (15 C)
Dew Point: 55 F (13 C)
Relative Humidity: 87%
Pressure (altimeter): 30.06 in. Hg (1018 hPa)
ob: ESGG 280820Z 29007KT 9999 SCT009 BKN013 15/13 Q1018
cycle: 8

Station Type Date Time Source
ESGG TAF 2022/06/28 09:18 UTC NOAA

TAF TAF ESGG 280830Z 2809/2909 29010KT 9999 BKN012
BECMG 2809/2810 SCT020
BECMG 2819/2821 18003KT PROB40 2822/2905 0600 FG VV001

Example: see airport list